Time;durP1;ratioP1;P1;durP2;ratioP2;P2;SDS_P1;SDS_P2;PMS_P1;PMS_P2;Temp;Humidity;BMP_temperature;BMP_pressure;BME280_temperature;BME280_humidity;BME280_pressure;Samples;Min_cycle;Max_cycle;Signal;HPM_P1;HPM_P2
2022/11/11 00:01:13;;;;;;;7.20;4.87;;;8.90;99.90;;;9.14;nan;102115.84;5017622;28;20660;-67
2022/11/11 00:03:41;;;;;;;7.20;4.10;;;8.90;99.90;;;9.07;nan;102114.41;5031555;28;20666;-65
2022/11/11 00:06:13;;;;;;;6.40;4.40;;;8.90;99.90;;;9.07;nan;102119.63;5029747;28;20699;-65
2022/11/11 00:08:40;;;;;;;7.50;4.50;;;8.80;99.90;;;9.08;nan;102115.28;5031170;28;20625;-65
2022/11/11 00:11:12;;;;;;;5.70;4.50;;;8.80;99.90;;;9.01;nan;102112.06;5026002;28;21204;-67
2022/11/11 00:13:41;;;;;;;5.70;3.00;;;8.80;99.90;;;8.96;nan;102108.84;5031007;28;21243;-67
2022/11/11 00:16:13;;;;;;;7.90;3.70;;;8.70;99.90;;;8.94;nan;102107.22;5025123;28;20636;-66
2022/11/11 00:27:11;;;;;;;8.77;5.20;;;8.60;99.90;;;8.75;nan;102104.53;5031694;28;20634;-66
2022/11/11 00:29:39;;;;;;;9.47;4.90;;;8.60;99.90;;;8.83;nan;102102.44;5012615;28;20663;-66
2022/11/11 00:32:23;;;;;;;11.60;4.80;;;8.60;99.90;;;8.82;nan;102115.50;5032299;28;20655;-66
2022/11/11 00:37:37;;;;;;;5.43;4.00;;;8.60;99.90;;;8.78;nan;102119.13;5011895;28;21189;-66
2022/11/11 00:40:05;;;;;;;7.83;4.63;;;8.50;99.90;;;8.71;nan;102125.53;5005767;28;20697;-66
2022/11/11 00:42:32;;;;;;;7.50;4.33;;;8.50;99.90;;;8.73;nan;102129.72;5037666;28;20686;-66
2022/11/11 00:44:59;;;;;;;4.83;3.50;;;8.50;99.90;;;8.73;nan;102124.53;5012548;28;21214;-66
2022/11/11 00:53:17;;;;;;;6.57;3.87;;;8.50;99.90;;;8.64;nan;102150.09;5023817;28;20665;-66
2022/11/11 00:55:51;;;;;;;8.37;4.10;;;8.40;99.90;;;8.54;nan;102149.59;5023600;28;21029;-67
2022/11/11 00:58:18;;;;;;;5.03;3.83;;;8.40;99.90;;;8.56;nan;102150.41;5025461;28;20961;-64
2022/11/11 01:00:46;;;;;;;9.00;5.17;;;8.40;99.90;;;8.40;nan;102155.34;5029693;28;20621;-64
2022/11/11 01:03:13;;;;;;;7.67;4.80;;;8.30;99.90;;;8.58;nan;102154.63;5030888;28;20777;-65
2022/11/11 01:05:40;;;;;;;7.00;4.73;;;8.30;99.90;;;8.46;nan;102146.44;5031233;28;21515;-66
2022/11/11 01:08:07;;;;;;;6.50;4.17;;;8.20;99.90;;;8.43;nan;102144.81;5045000;28;20686;-66
2022/11/11 01:10:38;;;;;;;4.70;3.93;;;8.20;99.90;;;8.41;nan;102151.00;5032875;28;20668;-67
2022/11/11 01:13:14;;;;;;;5.60;4.20;;;8.20;99.90;;;8.41;nan;102145.81;5013789;28;20645;-67
2022/11/11 01:15:45;;;;;;;6.77;4.57;;;8.20;99.90;;;8.38;nan;102145.91;5025689;28;20642;-67
2022/11/11 01:18:15;;;;;;;6.43;4.03;;;8.20;99.90;;;8.25;nan;102145.53;5007323;28;20636;-66
2022/11/11 01:20:43;;;;;;;6.23;4.03;;;8.10;99.90;;;8.35;nan;102139.06;5029810;28;20639;-67
2022/11/11 01:23:12;;;;;;;6.60;4.27;;;8.10;99.90;;;8.35;nan;102140.81;5006447;28;20667;-67
2022/11/11 01:25:41;;;;;;;6.27;4.00;;;8.10;99.90;;;8.38;nan;102141.56;5002497;28;20641;-66
2022/11/11 01:28:09;;;;;;;7.77;4.00;;;8.10;99.90;;;8.17;nan;102147.56;5015381;28;20639;-65
2022/11/11 01:30:36;;;;;;;4.90;3.80;;;8.00;99.90;;;8.20;nan;102141.41;5015060;28;21234;-65
2022/11/11 01:33:03;;;;;;;8.80;4.67;;;8.00;99.90;;;8.28;nan;102152.38;5034859;28;20647;-65
2022/11/11 01:35:31;;;;;;;7.50;4.47;;;8.00;99.90;;;8.18;nan;102157.03;5024710;28;21217;-65
2022/11/11 01:37:58;;;;;;;6.60;4.17;;;8.00;99.90;;;7.97;nan;102157.00;5034815;28;20633;-65
2022/11/11 01:40:26;;;;;;;7.40;4.70;;;7.90;99.90;;;7.99;nan;102152.59;5033771;28;20644;-66
2022/11/11 01:43:22;;;;;;;6.20;4.10;;;7.90;99.90;;;8.09;nan;102156.56;5033985;28;21126;-65
2022/11/11 01:45:58;;;;;;;7.30;4.13;;;7.90;99.90;;;8.09;nan;102154.78;5027625;28;21192;-66
2022/11/11 01:51:19;;;;;;;5.23;3.57;;;7.90;99.90;;;7.78;nan;102147.28;5029712;28;20669;-64
2022/11/11 01:53:56;;;;;;;3.47;3.10;;;7.80;99.90;;;7.96;nan;102155.31;5016141;28;20657;-66
2022/11/11 01:56:23;;;;;;;3.57;3.10;;;7.80;99.90;;;8.04;nan;102145.47;5030135;28;20643;-66
2022/11/11 01:58:55;;;;;;;3.40;2.53;;;7.80;99.90;;;7.93;nan;102145.00;5034330;28;21050;-65
2022/11/11 02:01:22;;;;;;;4.67;3.50;;;7.80;99.90;;;7.99;nan;102148.25;5016174;28;20632;-65
2022/11/11 02:06:38;;;;;;;3.60;3.00;;;7.80;99.90;;;7.94;nan;102144.97;5014698;28;21209;-66
2022/11/11 02:09:07;;;;;;;5.17;3.00;;;7.80;99.90;;;8.02;nan;102142.94;5024521;28;20637;-65
2022/11/11 02:14:36;;;;;;;5.97;4.10;;;7.80;99.90;;;7.90;nan;102139.94;5020317;28;20633;-66
2022/11/11 02:17:07;;;;;;;7.27;4.27;;;7.80;99.90;;;7.91;nan;102155.47;5030038;28;21200;-65
2022/11/11 02:19:48;;;;;;;4.97;2.93;;;7.80;99.90;;;7.73;nan;102140.56;5014289;28;20682;-65
2022/11/11 02:22:41;;;;;;;5.10;3.20;;;7.70;99.90;;;7.77;nan;102145.56;5036650;28;20752;-66
2022/11/11 02:25:13;;;;;;;6.03;3.43;;;7.60;99.90;;;7.80;nan;102153.28;5016890;28;20698;-66
2022/11/11 02:27:45;;;;;;;4.67;3.27;;;7.60;99.90;;;7.74;nan;102148.31;5015555;28;20637;-66
2022/11/11 02:30:15;;;;;;;4.10;3.10;;;7.60;99.90;;;7.71;nan;102137.16;5015259;28;20691;-66
2022/11/11 02:32:50;;;;;;;3.33;2.70;;;7.60;99.90;;;7.78;nan;102138.63;5033792;28;20663;-67
2022/11/11 02:35:28;;;;;;;2.10;2.00;;;7.60;99.90;;;7.74;nan;102135.31;5050147;28;21230;-66
2022/11/11 02:37:55;;;;;;;2.97;2.20;;;7.60;99.90;;;7.80;nan;102137.69;5009743;28;20630;-66
2022/11/11 02:43:31;;;;;;;2.70;1.90;;;7.50;99.90;;;7.64;nan;102131.34;5029883;28;21305;-65
2022/11/11 02:46:01;;;;;;;2.33;2.13;;;7.50;99.90;;;7.58;nan;102122.94;5015162;28;20620;-66
2022/11/11 02:48:29;;;;;;;2.10;1.90;;;7.50;99.90;;;7.53;nan;102128.28;5033002;28;21184;-66
2022/11/11 02:50:56;;;;;;;2.87;2.63;;;7.40;99.90;;;7.55;nan;102144.66;5015363;28;20661;-66
2022/11/11 02:53:23;;;;;;;3.00;2.40;;;7.40;99.90;;;7.64;nan;102144.34;5033162;28;20731;-66
2022/11/11 02:55:51;;;;;;;3.67;3.00;;;7.40;99.90;;;7.71;nan;102160.53;5024176;28;20637;-66
2022/11/11 02:58:18;;;;;;;2.37;2.17;;;7.40;99.90;;;7.73;nan;102163.97;5031694;28;20635;-64
2022/11/11 03:00:45;;;;;;;3.17;1.73;;;7.40;99.90;;;7.74;nan;102169.09;5031615;28;20645;-66
2022/11/11 03:03:12;;;;;;;2.13;1.93;;;7.50;99.90;;;7.63;nan;102163.41;5032170;28;20667;-66
2022/11/11 03:05:39;;;;;;;2.43;2.10;;;7.50;99.90;;;7.62;nan;102156.50;5030749;28;20616;-66
2022/11/11 03:08:06;;;;;;;2.60;2.13;;;7.40;99.90;;;7.67;nan;102162.41;5030569;28;20642;-66
2022/11/11 03:10:33;;;;;;;3.87;2.67;;;7.50;99.90;;;7.69;nan;102164.94;5031946;28;20656;-66
2022/11/11 03:13:00;;;;;;;2.70;2.37;;;7.40;99.90;;;7.69;nan;102162.34;5046311;28;20652;-65
2022/11/11 03:15:27;;;;;;;2.97;2.20;;;7.40;99.90;;;7.67;nan;102162.41;5020018;28;21227;-66
2022/11/11 03:17:54;;;;;;;3.67;2.67;;;7.50;99.90;;;7.66;nan;102171.13;5028885;28;20633;-66
2022/11/11 03:23:13;;;;;;;2.50;2.10;;;7.40;99.90;;;7.70;nan;102177.91;5031686;28;21021;-66
2022/11/11 03:25:46;;;;;;;4.03;2.50;;;7.40;99.90;;;7.77;nan;102192.34;5032174;28;20637;-66
2022/11/11 03:28:18;;;;;;;3.13;2.43;;;7.50;99.90;;;7.89;nan;102198.88;5029826;28;20649;-66
2022/11/11 03:30:48;;;;;;;5.63;3.40;;;7.50;99.90;;;7.78;nan;102188.84;5030786;28;21038;-66
2022/11/11 03:33:17;;;;;;;3.40;2.50;;;7.50;99.90;;;7.71;nan;102192.56;5010169;28;21035;-66
2022/11/11 03:35:47;;;;;;;1.73;1.63;;;7.50;99.90;;;7.76;nan;102182.88;5016108;28;20641;-66
2022/11/11 03:38:23;;;;;;;2.33;1.97;;;7.50;99.90;;;7.72;nan;102183.03;5030255;28;20639;-65
2022/11/11 03:40:56;;;;;;;4.70;3.00;;;7.50;99.90;;;7.71;nan;102197.75;5030581;28;20673;-66
2022/11/11 03:43:26;;;;;;;3.50;2.90;;;7.50;99.90;;;7.66;nan;102191.91;5013874;28;20658;-66
2022/11/11 03:45:56;;;;;;;4.97;2.30;;;7.40;99.90;;;7.75;nan;102193.34;5030861;28;20637;-66
2022/11/11 03:48:25;;;;;;;2.87;1.90;;;7.50;99.90;;;7.70;nan;102197.84;5015067;28;20693;-67
2022/11/11 03:50:52;;;;;;;2.60;2.17;;;7.40;99.90;;;7.65;nan;102195.38;5018932;28;20694;-66
2022/11/11 03:53:21;;;;;;;1.97;1.80;;;7.40;99.90;;;7.61;nan;102193.81;5007827;28;21007;-66
2022/11/11 03:55:50;;;;;;;3.10;2.00;;;7.40;99.90;;;7.62;nan;102198.09;5030303;28;20975;-66
2022/11/11 03:58:17;;;;;;;1.93;1.70;;;7.40;99.90;;;7.59;nan;102199.94;5030162;28;20629;-66
2022/11/11 04:00:45;;;;;;;2.10;1.90;;;7.40;99.90;;;7.58;nan;102206.06;5031634;28;20636;-66
2022/11/11 04:11:42;;;;;;;4.90;2.80;;;7.30;99.90;;;7.54;nan;102217.44;5016924;28;20718;-66
2022/11/11 04:16:58;;;;;;;4.60;2.90;;;7.30;99.90;;;7.53;nan;102234.78;5020996;28;20631;-64
2022/11/11 04:22:10;;;;;;;14.37;3.60;;;7.20;99.90;;;7.33;nan;102244.13;5026998;28;20713;-65
2022/11/11 04:27:23;;;;;;;5.23;3.80;;;7.10;99.90;;;7.18;nan;102242.88;5023679;28;21200;-66
2022/11/11 04:29:51;;;;;;;6.03;3.67;;;7.10;99.90;;;7.07;nan;102244.97;5032568;28;21184;-66
2022/11/11 04:32:41;;;;;;;6.40;3.73;;;7.00;99.90;;;6.93;nan;102241.97;5030298;28;20656;-66
2022/11/11 04:35:11;;;;;;;3.50;2.90;;;6.90;99.90;;;6.99;nan;102244.38;5029017;28;20782;-68
2022/11/11 04:37:48;;;;;;;4.90;2.90;;;6.90;99.90;;;7.10;nan;102241.44;5028815;28;20633;-66
2022/11/11 04:43:02;;;;;;;2.40;2.17;;;6.90;99.90;;;7.18;nan;102245.47;5006708;28;20660;-66
2022/11/11 04:45:34;;;;;;;3.13;2.27;;;7.00;99.90;;;7.07;nan;102246.75;5020627;28;20642;-67
2022/11/11 04:48:07;;;;;;;1.93;1.77;;;6.90;99.90;;;6.98;nan;102237.50;5028450;28;20628;-66
2022/11/11 04:50:41;;;;;;;2.20;2.00;;;6.90;99.90;;;6.98;nan;102243.50;5020715;28;20661;-66
2022/11/11 04:53:13;;;;;;;3.20;2.40;;;6.90;99.90;;;7.15;nan;102239.56;5027337;28;20661;-66
2022/11/11 04:58:34;;;;;;;2.00;1.87;;;6.90;99.90;;;7.17;nan;102243.81;5028885;28;20665;-67
2022/11/11 05:01:01;;;;;;;3.07;2.23;;;6.90;99.90;;;7.02;nan;102233.91;5014327;28;20641;-68
2022/11/11 05:03:28;;;;;;;4.70;2.20;;;6.80;99.90;;;7.07;nan;102231.16;5030638;28;21064;-67
2022/11/11 05:09:00;;;;;;;1.63;1.50;;;6.80;99.90;;;7.07;nan;102234.59;5014352;28;20983;-66
2022/11/11 05:11:30;;;;;;;2.77;1.87;;;6.80;99.90;;;7.07;nan;102238.03;5040421;28;20674;-67
2022/11/11 05:22:35;;;;;;;2.13;1.97;;;6.90;99.90;;;7.18;nan;102249.81;5027126;28;20655;-67
2022/11/11 05:27:48;;;;;;;2.43;2.23;;;6.90;99.90;;;7.27;nan;102245.19;5029128;28;21008;-66
2022/11/11 05:30:16;;;;;;;2.63;1.83;;;7.00;99.90;;;7.27;nan;102245.19;5030490;28;20625;-67
2022/11/11 05:32:43;;;;;;;2.03;1.93;;;7.00;99.90;;;7.29;nan;102253.78;5030016;28;21304;-66
2022/11/11 05:35:11;;;;;;;4.80;1.87;;;7.00;99.90;;;7.42;nan;102251.63;5031249;28;20633;-67
2022/11/11 05:37:39;;;;;;;2.47;2.20;;;7.10;99.90;;;7.42;nan;102257.66;5012653;28;20633;-66
2022/11/11 05:40:07;;;;;;;2.13;1.90;;;7.10;99.90;;;7.43;nan;102248.97;5028527;28;20644;-67
2022/11/11 05:42:34;;;;;;;3.83;2.17;;;7.10;99.90;;;7.49;nan;102253.13;5013084;28;21236;-67
2022/11/11 05:45:03;;;;;;;2.37;1.70;;;7.20;99.90;;;7.52;nan;102246.06;5012595;28;21204;-65
2022/11/11 05:47:30;;;;;;;1.80;1.70;;;7.20;99.90;;;7.49;nan;102251.38;5030663;28;20636;-67
2022/11/11 05:49:57;;;;;;;1.50;1.37;;;7.20;99.90;;;7.54;nan;102253.78;4994644;28;20634;-66
2022/11/11 05:52:23;;;;;;;2.70;2.17;;;7.20;99.90;;;7.63;nan;102258.69;5024303;28;21298;-66
2022/11/11 05:54:50;;;;;;;2.33;1.90;;;7.30;99.90;;;7.65;nan;102259.47;5013215;28;20690;-66
2022/11/11 05:57:18;;;;;;;2.63;2.43;;;7.30;99.90;;;7.62;nan;102263.03;5015556;28;20641;-66
2022/11/11 05:59:47;;;;;;;2.67;2.47;;;7.30;99.90;;;7.59;nan;102264.88;5023406;28;20637;-66
2022/11/11 06:02:14;;;;;;;2.57;2.47;;;7.30;99.90;;;7.62;nan;102267.41;5013414;28;20688;-67
2022/11/11 06:04:41;;;;;;;3.60;2.37;;;7.30;99.90;;;7.65;nan;102275.94;5029798;28;20628;-66
2022/11/11 06:07:07;;;;;;;2.50;2.30;;;7.30;99.90;;;7.68;nan;102278.44;5022453;28;20633;-66
2022/11/11 06:09:34;;;;;;;2.03;1.80;;;7.40;99.90;;;7.78;nan;102277.22;5029080;28;20632;-67
2022/11/11 06:12:01;;;;;;;3.73;2.53;;;7.40;99.90;;;7.76;nan;102275.56;5030805;28;21261;-66
2022/11/11 06:14:28;;;;;;;2.33;2.03;;;7.40;99.90;;;7.76;nan;102279.03;5033420;28;20636;-68
2022/11/11 06:16:55;;;;;;;1.60;1.50;;;7.40;99.90;;;7.68;nan;102283.63;5027616;28;20631;-66
2022/11/11 06:19:22;;;;;;;1.50;1.40;;;7.40;99.90;;;7.72;nan;102290.41;5032355;28;20639;-66
2022/11/11 06:21:59;;;;;;;1.93;1.77;;;7.40;99.90;;;7.75;nan;102286.88;5025906;28;20647;-65
2022/11/11 06:24:26;;;;;;;2.67;2.07;;;7.50;99.90;;;7.76;nan;102288.56;5026144;28;20636;-66
2022/11/11 06:26:56;;;;;;;2.17;1.73;;;7.50;99.90;;;7.71;nan;102293.91;5023754;28;20636;-67
2022/11/11 06:29:23;;;;;;;3.37;1.70;;;7.50;99.90;;;7.78;nan;102302.34;5010097;28;20729;-66
2022/11/11 06:31:50;;;;;;;4.77;1.97;;;7.50;99.90;;;7.68;nan;102296.63;5031683;28;20718;-66
2022/11/11 06:34:17;;;;;;;2.90;1.87;;;7.50;99.90;;;7.68;nan;102308.75;5027426;28;21209;-67
2022/11/11 06:36:44;;;;;;;4.30;1.90;;;7.40;99.90;;;7.45;nan;102299.09;5022738;28;20624;-66
2022/11/11 06:39:11;;;;;;;2.80;2.10;;;7.40;99.90;;;7.30;nan;102297.03;5032361;28;20702;-67
2022/11/11 06:41:38;;;;;;;6.00;2.00;;;7.30;99.90;;;7.36;nan;102301.16;5043439;28;21192;-66
2022/11/11 06:44:04;;;;;;;1.70;1.43;;;7.20;99.90;;;7.37;nan;102303.72;5037677;28;20657;-66
2022/11/11 06:46:31;;;;;;;1.90;1.73;;;7.20;99.90;;;7.29;nan;102305.72;5032853;28;20709;-66
2022/11/11 06:48:58;;;;;;;3.93;1.60;;;7.10;99.90;;;7.29;nan;102308.31;5030144;28;20643;-66
2022/11/11 06:51:25;;;;;;;1.93;1.77;;;7.10;99.90;;;7.32;nan;102321.19;5042569;28;21074;-67
2022/11/11 06:53:52;;;;;;;2.07;1.97;;;7.10;99.90;;;7.34;nan;102323.75;5030479;28;20676;-67
2022/11/11 06:56:19;;;;;;;2.43;1.17;;;7.10;99.90;;;7.41;nan;102331.28;5025933;28;20640;-66
2022/11/11 06:58:46;;;;;;;6.00;2.00;;;7.20;99.90;;;7.29;nan;102331.66;5031508;28;20629;-67
2022/11/11 07:01:13;;;;;;;2.30;1.80;;;7.10;99.90;;;7.42;nan;102334.72;5032475;28;20666;-67
2022/11/11 07:03:40;;;;;;;2.27;1.47;;;7.20;99.90;;;7.50;nan;102341.38;5016215;28;21055;-67
2022/11/11 07:06:07;;;;;;;1.43;1.10;;;7.20;99.90;;;7.33;nan;102332.41;5032384;28;20640;-67
2022/11/11 07:08:34;;;;;;;1.77;1.27;;;7.20;99.90;;;7.46;nan;102332.00;5032063;28;20709;-67
2022/11/11 07:11:01;;;;;;;2.33;1.47;;;7.20;99.90;;;7.53;nan;102332.66;5030302;28;20717;-66
2022/11/11 07:13:37;;;;;;;4.47;2.67;;;7.30;99.90;;;7.35;nan;102341.00;5031259;28;20664;-65
2022/11/11 07:16:04;;;;;;;2.33;1.70;;;7.20;99.90;;;7.55;nan;102344.69;5021885;28;20637;-66
2022/11/11 07:18:31;;;;;;;3.80;2.50;;;7.30;99.90;;;7.71;nan;102348.47;5024302;28;20632;-66
2022/11/11 07:20:58;;;;;;;2.50;2.30;;;7.40;99.90;;;7.81;nan;102346.44;5030884;28;21000;-66
2022/11/11 07:23:25;;;;;;;5.43;3.00;;;7.50;99.90;;;7.81;nan;102347.25;5030801;28;20657;-66
2022/11/11 07:25:52;;;;;;;2.50;2.30;;;7.50;99.90;;;7.78;nan;102352.56;5032674;28;20629;-67
2022/11/11 07:28:19;;;;;;;1.70;1.60;;;7.50;99.90;;;7.64;nan;102346.13;5028856;28;20740;-64
2022/11/11 07:30:46;;;;;;;2.37;2.17;;;7.50;99.90;;;7.56;nan;102338.56;5048108;28;20635;-66
2022/11/11 07:33:13;;;;;;;1.23;1.13;;;7.50;99.90;;;7.58;nan;102349.75;5024878;28;21081;-66
2022/11/11 07:35:40;;;;;;;4.50;1.60;;;7.50;99.90;;;7.60;nan;102347.97;5030485;28;20628;-67
2022/11/11 07:38:07;;;;;;;1.00;0.90;;;7.40;99.90;;;7.61;nan;102347.06;5032121;28;20695;-66
2022/11/11 07:40:34;;;;;;;2.00;1.57;;;7.50;99.90;;;7.48;nan;102344.91;5026769;28;20671;-66
2022/11/11 07:43:01;;;;;;;2.03;1.77;;;7.40;99.90;;;7.47;nan;102354.47;5031102;28;20660;-66
2022/11/11 07:45:28;;;;;;;4.77;2.10;;;7.40;99.90;;;7.54;nan;102355.97;5011158;28;20638;-67
2022/11/11 07:47:55;;;;;;;2.03;1.40;;;7.40;99.90;;;7.53;nan;102363.81;5031119;28;20617;-66
2022/11/11 07:50:21;;;;;;;1.67;1.50;;;7.40;99.90;;;7.54;nan;102357.69;5031675;28;21224;-66
2022/11/11 07:52:49;;;;;;;1.20;1.10;;;7.40;99.90;;;7.40;nan;102359.91;5025946;28;21225;-67
2022/11/11 07:55:16;;;;;;;4.50;1.97;;;7.30;99.90;;;7.73;nan;102361.44;5023452;28;20996;-65
2022/11/11 07:57:43;;;;;;;0.73;0.73;;;7.40;99.90;;;7.69;nan;102363.25;5014593;28;20678;-66
2022/11/11 08:00:11;;;;;;;1.33;0.93;;;7.40;99.90;;;7.44;nan;102359.75;5030783;28;20613;-67
2022/11/11 08:02:38;;;;;;;8.20;2.87;;;7.40;99.90;;;7.57;nan;102358.47;5000543;28;21247;-66
2022/11/11 08:05:06;;;;;;;3.23;2.40;;;7.40;99.90;;;7.79;nan;102353.44;5030064;28;20649;-66
2022/11/11 08:07:34;;;;;;;4.30;2.20;;;7.50;99.90;;;7.81;nan;102357.66;5030296;28;20641;-68
2022/11/11 08:10:01;;;;;;;0.73;0.73;;;7.50;99.90;;;7.78;nan;102356.91;5028904;28;20633;-67
2022/11/11 08:15:14;;;;;;;0.97;0.87;;;7.60;99.90;;;7.86;nan;102354.06;5027354;28;20629;-67
2022/11/11 08:17:40;;;;;;;1.87;1.60;;;7.60;99.90;;;7.94;nan;102352.06;5018051;28;20640;-66
2022/11/11 08:20:09;;;;;;;3.70;1.87;;;7.70;99.90;;;8.02;nan;102365.66;5012446;28;20627;-66
2022/11/11 08:22:41;;;;;;;1.23;1.13;;;7.80;99.90;;;8.08;nan;102360.22;5029346;28;20661;-66
2022/11/11 08:25:14;;;;;;;1.23;1.13;;;7.80;99.90;;;8.06;nan;102359.44;5027798;28;20635;-66
2022/11/11 08:27:41;;;;;;;1.83;1.73;;;7.80;99.90;;;8.30;nan;102356.88;5030247;28;21242;-66
2022/11/11 08:30:09;;;;;;;2.17;2.03;;;7.90;99.90;;;8.28;nan;102358.69;5030684;28;20643;-66
2022/11/11 08:32:36;;;;;;;1.70;1.40;;;8.00;99.90;;;8.39;nan;102358.31;5030467;28;20670;-67
2022/11/11 08:35:03;;;;;;;1.93;1.57;;;8.00;99.90;;;8.17;nan;102357.31;5030975;28;20897;-68
2022/11/11 08:37:30;;;;;;;2.47;1.80;;;8.00;99.90;;;8.32;nan;102357.69;5023089;28;20638;-67
2022/11/11 08:39:57;;;;;;;3.03;2.20;;;8.00;99.90;;;8.49;nan;102359.66;5023583;28;20638;-67
2022/11/11 08:42:24;;;;;;;2.37;1.80;;;8.10;99.90;;;8.55;nan;102356.84;5045058;28;20654;-67
2022/11/11 08:44:51;;;;;;;3.20;2.30;;;8.10;99.90;;;8.56;nan;102353.34;5020841;28;20621;-67
2022/11/11 08:47:21;;;;;;;5.80;2.60;;;8.20;99.90;;;8.38;nan;102359.19;5020855;28;20632;-67
2022/11/11 08:49:49;;;;;;;2.07;1.90;;;8.10;99.90;;;8.56;nan;102363.75;5012697;28;20634;-67
2022/11/11 08:52:16;;;;;;;4.30;3.53;;;8.20;99.90;;;8.75;nan;102363.94;5016148;28;20683;-66
2022/11/11 08:54:43;;;;;;;5.43;3.03;;;8.20;99.90;;;8.70;nan;102364.09;5025325;28;20647;-66
2022/11/11 08:57:10;;;;;;;8.00;3.43;;;8.30;99.90;;;8.87;nan;102369.53;5029535;28;20629;-66
2022/11/11 08:59:37;;;;;;;4.23;2.40;;;8.40;99.90;;;8.97;nan;102365.66;5025162;28;20699;-66
2022/11/11 09:02:04;;;;;;;3.63;2.80;;;8.50;99.90;;;9.04;nan;102377.56;5037668;28;21035;-67
2022/11/11 09:04:31;;;;;;;4.33;3.23;;;8.50;99.90;;;8.94;nan;102386.63;5020762;28;20647;-67
2022/11/11 09:07:18;;;;;;;3.13;2.83;;;8.60;99.90;;;8.82;nan;102376.66;5025858;28;21116;-68
2022/11/11 09:09:45;;;;;;;2.30;2.03;;;8.60;99.90;;;8.83;nan;102385.31;5012976;28;20656;-67
2022/11/11 09:12:12;;;;;;;4.90;2.50;;;8.50;99.90;;;9.06;nan;102383.53;5032207;28;20667;-67
2022/11/11 09:14:39;;;;;;;1.50;1.40;;;8.60;99.90;;;9.03;nan;102381.03;5014808;28;20640;-67
2022/11/11 09:17:06;;;;;;;4.37;2.90;;;8.60;99.90;;;9.14;nan;102380.63;5025194;28;20668;-67
2022/11/11 09:19:33;;;;;;;8.03;4.03;;;8.60;99.90;;;9.22;nan;102381.22;5012929;28;21026;-67
2022/11/11 09:22:00;;;;;;;6.30;4.17;;;8.70;99.90;;;9.27;nan;102382.72;5026729;28;20659;-66
2022/11/11 09:24:27;;;;;;;7.30;4.80;;;8.70;99.90;;;9.38;nan;102385.75;5013344;28;20634;-67
2022/11/11 09:26:54;;;;;;;4.90;2.97;;;8.80;99.90;;;9.48;nan;102387.97;5030084;28;20623;-66
2022/11/11 09:29:21;;;;;;;5.33;2.87;;;8.80;99.90;;;9.45;nan;102388.97;5028098;28;20640;-66
2022/11/11 09:31:48;;;;;;;5.17;3.30;;;8.90;99.90;;;9.46;nan;102392.41;5030365;28;20693;-67
2022/11/11 09:34:15;;;;;;;10.20;4.20;;;8.90;99.90;;;9.44;nan;102396.84;5013816;28;21172;-67
2022/11/11 09:36:42;;;;;;;4.57;3.20;;;8.90;99.90;;;9.50;nan;102400.03;5022257;28;20639;-67
2022/11/11 09:39:09;;;;;;;7.00;3.63;;;8.90;99.90;;;9.49;nan;102392.28;5030477;28;20622;-68
2022/11/11 09:41:56;;;;;;;6.07;3.27;;;9.00;99.90;;;9.38;nan;102396.19;5028565;28;21060;-65
2022/11/11 09:45:18;;;;;;;22.97;10.90;;;9.00;99.90;;;9.43;nan;102392.53;5009838;28;20617;-65
2022/11/11 09:47:57;;;;;;;22.63;11.10;;;9.00;99.90;;;9.48;nan;102391.44;5021754;28;20629;-67
2022/11/11 09:50:34;;;;;;;5.77;3.90;;;9.10;99.90;;;9.50;nan;102394.00;5027535;28;21194;-66
2022/11/11 09:53:19;;;;;;;5.00;3.80;;;9.10;99.90;;;9.63;nan;102400.41;5030821;28;20680;-66
2022/11/11 09:55:57;;;;;;;3.70;2.67;;;9.10;99.90;;;9.67;nan;102399.41;5027282;28;21196;-67
2022/11/11 09:58:33;;;;;;;7.20;3.60;;;9.20;99.90;;;9.64;nan;102389.09;5033844;28;20641;-66
2022/11/11 10:01:11;;;;;;;8.97;4.20;;;9.20;99.90;;;9.48;nan;102395.78;5015506;28;20712;-66
2022/11/11 10:03:46;;;;;;;3.80;2.40;;;9.20;99.90;;;9.56;nan;102391.16;5014103;28;20677;-67
2022/11/11 10:06:21;;;;;;;11.00;4.10;;;9.10;99.90;;;9.64;nan;102391.69;5039326;28;21202;-67
2022/11/11 10:09:13;;;;;;;4.70;2.57;;;9.20;99.90;;;9.60;nan;102392.72;5052479;28;20642;-66
2022/11/11 10:12:14;;;;;;;3.87;2.30;;;9.20;99.90;;;9.57;nan;102387.63;5015603;28;21318;-67
2022/11/11 10:14:45;;;;;;;7.70;3.93;;;9.20;99.90;;;9.72;nan;102373.97;5015644;28;20628;-66
2022/11/11 10:17:37;;;;;;;6.97;3.87;;;9.20;99.90;;;9.83;nan;102380.47;5008295;28;20637;-66
2022/11/11 10:20:31;;;;;;;9.17;3.90;;;9.30;99.90;;;9.84;nan;102370.84;4996521;28;20624;-66
2022/11/11 10:23:15;;;;;;;7.70;3.83;;;9.30;99.90;;;9.94;nan;102373.03;5015115;28;21250;-67
2022/11/11 10:25:56;;;;;;;8.27;4.07;;;9.30;99.90;;;10.00;nan;102366.72;4998860;28;20693;-68
2022/11/11 10:28:29;;;;;;;7.30;4.23;;;9.40;99.90;;;10.16;nan;102362.56;5011164;28;20637;-66
2022/11/11 10:30:56;;;;;;;5.40;3.00;;;9.50;99.90;;;10.17;nan;102355.59;5014021;28;20694;-66
2022/11/11 10:33:42;;;;;;;6.10;3.80;;;9.50;99.90;;;10.00;nan;102358.88;5010234;28;21044;-63
2022/11/11 10:36:19;;;;;;;3.23;2.50;;;9.60;99.90;;;10.24;nan;102351.81;5007534;28;20647;-66
2022/11/11 10:39:00;;;;;;;12.60;5.20;;;9.60;99.90;;;10.40;nan;102351.06;5027590;28;21202;-66
2022/11/11 10:41:37;;;;;;;15.47;7.33;;;9.70;99.90;;;10.60;nan;102353.66;4983814;28;20646;-66
2022/11/11 10:44:27;;;;;;;11.43;5.00;;;9.80;99.90;;;10.54;nan;102353.91;5025782;28;20652;-67
2022/11/11 10:47:12;;;;;;;6.43;3.67;;;9.90;99.90;;;10.26;nan;102353.44;5009077;28;20637;-68
2022/11/11 10:49:52;;;;;;;13.17;5.30;;;9.90;99.90;;;10.15;nan;102353.06;4996114;28;20614;-67
2022/11/11 10:52:47;;;;;;;10.13;4.57;;;9.80;99.90;;;10.16;nan;102341.69;5027643;28;20676;-66
2022/11/11 10:55:31;;;;;;;3.10;2.73;;;9.80;99.90;;;10.16;nan;102339.09;5020218;28;20690;-66
2022/11/11 10:58:17;;;;;;;8.77;4.20;;;9.70;99.90;;;10.00;nan;102335.41;4994808;28;21060;-66
2022/11/11 11:00:47;;;;;;;9.77;4.57;;;9.70;99.90;;;9.95;nan;102333.00;5019901;28;20712;-67
2022/11/11 11:03:24;;;;;;;13.30;5.80;;;9.60;99.90;;;10.19;nan;102330.28;5022022;28;20649;-67
2022/11/11 11:06:18;;;;;;;5.40;3.73;;;9.60;99.90;;;10.31;nan;102335.81;5032070;28;21027;-67
2022/11/11 11:08:52;;;;;;;12.70;5.17;;;9.70;99.90;;;10.32;nan;102326.22;5014410;28;21235;-66
2022/11/11 11:11:30;;;;;;;16.27;6.90;;;9.70;99.90;;;10.41;nan;102331.03;5012348;28;20632;-65
2022/11/11 11:14:02;;;;;;;14.17;6.53;;;9.80;99.90;;;10.48;nan;102333.31;5014378;28;20680;-67
2022/11/11 11:16:37;;;;;;;14.17;5.90;;;9.80;99.90;;;10.58;nan;102332.00;5021468;28;20629;-68
2022/11/11 11:19:16;;;;;;;5.57;3.37;;;9.90;99.90;;;10.50;nan;102331.47;4997742;28;20629;-65
2022/11/11 11:21:58;;;;;;;8.30;4.10;;;9.90;99.90;;;10.54;nan;102325.19;5013289;28;20621;-67
2022/11/11 11:24:32;;;;;;;5.10;3.17;;;9.90;99.90;;;10.35;nan;102326.09;5011749;28;20622;-67
2022/11/11 11:27:02;;;;;;;7.97;5.00;;;9.90;99.90;;;10.42;nan;102333.56;5022252;28;20637;-67
2022/11/11 11:29:43;;;;;;;8.40;4.23;;;9.90;99.90;;;10.50;nan;102328.84;5028899;28;20645;-66
2022/11/11 11:32:26;;;;;;;9.47;3.80;;;9.90;99.90;;;10.44;nan;102338.72;5032342;28;20664;-66
2022/11/11 11:34:55;;;;;;;8.53;4.60;;;10.00;99.90;;;10.49;nan;102329.78;5013160;28;20622;-68
2022/11/11 11:37:25;;;;;;;10.70;5.00;;;10.00;99.90;;;10.41;nan;102338.88;5010963;28;20690;-66
2022/11/11 11:40:01;;;;;;;9.77;4.90;;;10.00;99.90;;;10.24;nan;102323.97;5002032;28;21220;-65
2022/11/11 11:42:38;;;;;;;9.57;3.37;;;9.90;99.90;;;10.32;nan;102318.41;5031158;28;20709;-67
2022/11/11 11:45:28;;;;;;;7.37;3.80;;;9.90;99.90;;;10.36;nan;102322.56;5020385;28;20625;-67
2022/11/11 11:48:22;;;;;;;8.90;4.10;;;9.90;99.90;;;10.36;nan;102317.34;5020697;28;20630;-65
2022/11/11 11:51:20;;;;;;;10.17;3.57;;;9.90;99.90;;;10.43;nan;102317.03;5034972;28;21187;-65
2022/11/11 11:54:17;;;;;;;12.43;4.80;;;9.90;99.90;;;10.43;nan;102313.56;5013505;28;20669;-64
2022/11/11 11:56:48;;;;;;;10.60;4.77;;;9.90;99.90;;;10.37;nan;102309.44;5015021;28;20637;-66
2022/11/11 11:59:28;;;;;;;6.33;3.47;;;9.90;99.90;;;10.33;nan;102314.88;5013837;28;20629;-66
2022/11/11 12:02:10;;;;;;;12.17;4.87;;;9.90;99.90;;;10.41;nan;102320.59;5022447;28;20642;-66
2022/11/11 12:05:04;;;;;;;10.07;4.20;;;9.90;99.90;;;10.55;nan;102316.47;5031575;28;20629;-66
2022/11/11 12:08:05;;;;;;;6.80;3.57;;;10.00;99.90;;;10.53;nan;102315.69;5029872;28;20633;-69